Hlavní strana
METAR-TAF:

METAR-TAF

Letiště :

Magnitogorsk, Rusko

zeměpisná šířka: 53-23-36N, zeměpisná délka: 058-45-24E, výška: 436 m

Aktuální stav počasí

Zpráva byla vytvořena před 19 minutami, v 08:00 UTC
Jihojihovýchodní vítr 10 kt
Teplota -5°C
Vlhkost vzduchu 79%
Tlak 1017 hPa
Viditelnost 10 km a více
Polojasno ve výšce 4000 ft

METAR: USCM 110800Z 16005MPS 9999 SCT040 M05/M08 Q1017 R18/090060 NOSIG RMK QFE725

Čas: 13:19 (08:19 UTC)

Předpověď počasí

Zpráva byla vytvořena před 3 hodinami a 19 minutami, v 05:00 UTC
Předpověď platná od 11 v 06 UTC do 11 v 15 UTC
Jihozápadní vítr 6 kt s nárazy do 16 kt
Viditelnost 10 km a více
Polojasno ve výšce 4000 ft
Dočasný
od 11 v 06 UTC do 11 v 09 UTC
Viditelnost: 5000 m
Polojasno ve výšce 2000 ft
kouřmo

TAF: USCM 110500Z 1106/1115 22003G08MPS 9999 SCT040 TEMPO 1106/1109 5000 BR SCT020

Stav a předpovědi počasí z více než 4 000 letišť (zprávy METAR a TAF).

Červené a žluté tečky na mapě představují dostupné meteorologické stanice.

Když kurzor umístíte na tečku, zobrazí se název stanice.

Pak kliknutím zobrazíte stav a předpověď počasí.

Chcete-li změnit mapu, kliknutím na zelené tlačítko se znaménkem +mapu přiblížíte, kliknutím na zelené tlačítko se znaménkem – mapu oddálíte a kliknutím na zelené šipky přejdete na sousední mapy.


METAR-TAF: